sensor_id;sensor_type;location;lat;lon;timestamp;pressure;altitude;pressure_sealevel;temperature;humidity
55550;BME280;41397;49.972;18.944;2023-01-27T00:00:36;102066.27;;;2.77;81.09
55550;BME280;41397;49.972;18.944;2023-01-27T00:03:43;102073.50;;;2.77;80.86
55550;BME280;41397;49.972;18.944;2023-01-27T00:06:44;102069.76;;;2.81;81.00
55550;BME280;41397;49.972;18.944;2023-01-27T00:09:45;102064.33;;;2.82;80.84
55550;BME280;41397;49.972;18.944;2023-01-27T00:12:47;102058.89;;;2.84;80.68
55550;BME280;41397;49.972;18.944;2023-01-27T00:16:00;102061.52;;;2.85;80.60
55550;BME280;41397;49.972;18.944;2023-01-27T00:19:02;102053.49;;;2.84;80.90
55550;BME280;41397;49.972;18.944;2023-01-27T00:22:03;102067.72;;;2.89;80.64
55550;BME280;41397;49.972;18.944;2023-01-27T00:25:16;102059.61;;;2.89;80.92
55550;BME280;41397;49.972;18.944;2023-01-27T00:28:18;102060.46;;;2.91;80.90
55550;BME280;41397;49.972;18.944;2023-01-27T00:31:22;102057.66;;;2.94;80.89
55550;BME280;41397;49.972;18.944;2023-01-27T00:34:35;102057.66;;;2.94;80.75
55550;BME280;41397;49.972;18.944;2023-01-27T00:37:41;102064.77;;;2.98;80.78
55550;BME280;41397;49.972;18.944;2023-01-27T00:40:43;102064.77;;;2.98;80.91
55550;BME280;41397;49.972;18.944;2023-01-27T00:43:54;102065.64;;;2.99;80.52
55550;BME280;41397;49.972;18.944;2023-01-27T00:46:56;102069.38;;;2.95;80.72
55550;BME280;41397;49.972;18.944;2023-01-27T00:49:57;102073.00;;;2.94;80.70
55550;BME280;41397;49.972;18.944;2023-01-27T00:52:59;102073.78;;;2.97;81.11
55550;BME280;41397;49.972;18.944;2023-01-27T00:56:05;102070.17;;;2.98;80.87
55550;BME280;41397;49.972;18.944;2023-01-27T00:59:07;102070.17;;;2.98;80.78
55550;BME280;41397;49.972;18.944;2023-01-27T01:02:09;102067.59;;;2.94;80.94
55550;BME280;41397;49.972;18.944;2023-01-27T01:05:10;102061.31;;;2.93;80.64
55550;BME280;41397;49.972;18.944;2023-01-27T01:08:11;102061.34;;;2.92;80.68
55550;BME280;41397;49.972;18.944;2023-01-27T01:11:14;102061.41;;;2.90;80.95
55550;BME280;41397;49.972;18.944;2023-01-27T01:14:16;102056.02;;;2.88;80.89
55550;BME280;41397;49.972;18.944;2023-01-27T01:17:17;102056.88;;;2.91;80.98
55550;BME280;41397;49.972;18.944;2023-01-27T01:20:18;102057.85;;;2.88;80.90
55550;BME280;41397;49.972;18.944;2023-01-27T01:23:20;102050.69;;;2.87;81.07
55550;BME280;41397;49.972;18.944;2023-01-27T01:26:22;102048.09;;;2.84;81.05
55550;BME280;41397;49.972;18.944;2023-01-27T01:29:23;102052.54;;;2.85;81.13
55550;BME280;41397;49.972;18.944;2023-01-27T01:32:25;102055.22;;;2.86;80.92
55550;BME280;41397;49.972;18.944;2023-01-27T01:35:26;102055.22;;;2.86;81.27
55550;BME280;41397;49.972;18.944;2023-01-27T01:38:30;102055.15;;;2.88;80.95
55550;BME280;41397;49.972;18.944;2023-01-27T01:41:32;102054.27;;;2.87;80.73
55550;BME280;41397;49.972;18.944;2023-01-27T01:44:33;102059.59;;;2.91;80.64
55550;BME280;41397;49.972;18.944;2023-01-27T01:47:34;102057.83;;;2.89;80.69
55550;BME280;41397;49.972;18.944;2023-01-27T01:50:41;102048.09;;;2.84;80.86
55550;BME280;41397;49.972;18.944;2023-01-27T01:57:06;102049.59;;;2.63;81.12
55550;BME280;41397;49.972;18.944;2023-01-27T02:00:09;102052.47;;;2.57;81.04
55550;BME280;41397;49.972;18.944;2023-01-27T02:03:11;102055.49;;;2.44;81.37
55550;BME280;41397;49.972;18.944;2023-01-27T02:06:13;102054.52;;;2.47;81.74
55550;BME280;41397;49.972;18.944;2023-01-27T02:09:15;102045.24;;;2.57;81.58
55550;BME280;41397;49.972;18.944;2023-01-27T02:12:16;102050.67;;;2.56;81.58
55550;BME280;41397;49.972;18.944;2023-01-27T02:15:18;102049.01;;;2.52;81.79
55550;BME280;41397;49.972;18.944;2023-01-27T02:18:21;102047.06;;;2.57;81.49
55550;BME280;41397;49.972;18.944;2023-01-27T02:21:23;102041.02;;;2.47;81.75
55550;BME280;41397;49.972;18.944;2023-01-27T02:24:31;102045.42;;;2.51;82.30
55550;BME280;41397;49.972;18.944;2023-01-27T02:27:35;102039.17;;;2.49;82.23
55550;BME280;41397;49.972;18.944;2023-01-27T02:30:36;102045.48;;;2.48;82.32
55550;BME280;41397;49.972;18.944;2023-01-27T02:33:38;102051.88;;;2.46;82.15
55550;BME280;41397;49.972;18.944;2023-01-27T02:36:46;102057.13;;;2.50;81.96
55550;BME280;41397;49.972;18.944;2023-01-27T02:39:50;102049.30;;;2.41;81.67
55550;BME280;41397;49.972;18.944;2023-01-27T02:42:55;102046.25;;;2.20;81.86
55550;BME280;41397;49.972;18.944;2023-01-27T02:45:57;102045.42;;;2.18;81.96
55550;BME280;41397;49.972;18.944;2023-01-27T02:48:59;102041.50;;;2.30;81.98
55550;BME280;41397;49.972;18.944;2023-01-27T02:52:00;102053.16;;;2.32;81.94
55550;BME280;41397;49.972;18.944;2023-01-27T02:55:01;102039.07;;;2.21;82.36
55550;BME280;41397;49.972;18.944;2023-01-27T02:58:04;102047.98;;;2.23;82.24
55550;BME280;41397;49.972;18.944;2023-01-27T03:01:06;102044.96;;;2.01;82.48
55550;BME280;41397;49.972;18.944;2023-01-27T03:04:07;102043.15;;;2.02;82.29
55550;BME280;41397;49.972;18.944;2023-01-27T03:07:11;102057.55;;;2.02;83.03
55550;BME280;41397;49.972;18.944;2023-01-27T03:10:13;102048.41;;;2.08;83.22
55550;BME280;41397;49.972;18.944;2023-01-27T03:13:14;102045.54;;;2.14;82.80
55550;BME280;41397;49.972;18.944;2023-01-27T03:16:16;102051.73;;;2.17;83.09
55550;BME280;41397;49.972;18.944;2023-01-27T03:19:29;102047.16;;;2.21;82.64
55550;BME280;41397;49.972;18.944;2023-01-27T03:22:30;102053.46;;;2.20;82.31
55550;BME280;41397;49.972;18.944;2023-01-27T03:25:31;102052.55;;;2.21;82.51
55550;BME280;41397;49.972;18.944;2023-01-27T03:28:33;102050.85;;;2.17;82.59
55550;BME280;41397;49.972;18.944;2023-01-27T03:31:34;102051.62;;;2.22;82.38
55550;BME280;41397;49.972;18.944;2023-01-27T03:34:36;102047.09;;;2.22;82.52
55550;BME280;41397;49.972;18.944;2023-01-27T03:37:37;102043.69;;;2.16;83.04
55550;BME280;41397;49.972;18.944;2023-01-27T03:40:50;102046.15;;;2.23;82.90
55550;BME280;41397;49.972;18.944;2023-01-27T03:44:03;102043.63;;;2.17;82.86
55550;BME280;41397;49.972;18.944;2023-01-27T03:47:17;102043.69;;;2.16;82.86
55550;BME280;41397;49.972;18.944;2023-01-27T03:50:18;102039.29;;;2.12;82.83
55550;BME280;41397;49.972;18.944;2023-01-27T03:53:23;102051.13;;;2.06;83.01
55550;BME280;41397;49.972;18.944;2023-01-27T03:56:25;102043.10;;;2.05;83.65
55550;BME280;41397;49.972;18.944;2023-01-27T03:59:26;102037.29;;;1.86;83.74
55550;BME280;41397;49.972;18.944;2023-01-27T04:02:27;102047.85;;;1.93;83.60
55550;BME280;41397;49.972;18.944;2023-01-27T04:05:40;102038.71;;;1.99;83.56
55550;BME280;41397;49.972;18.944;2023-01-27T04:08:53;102045.15;;;1.93;83.83
55550;BME280;41397;49.972;18.944;2023-01-27T04:11:58;102033.82;;;1.81;83.98
55550;BME280;41397;49.972;18.944;2023-01-27T04:14:59;102029.57;;;1.70;84.75
55550;BME280;41397;49.972;18.944;2023-01-27T04:18:01;102037.74;;;1.67;84.71
55550;BME280;41397;49.972;18.944;2023-01-27T04:21:03;102036.35;;;1.51;85.53
55550;BME280;41397;49.972;18.944;2023-01-27T04:24:05;102036.89;;;1.65;85.37
55550;BME280;41397;49.972;18.944;2023-01-27T04:27:13;102037.91;;;1.61;85.27
55550;BME280;41397;49.972;18.944;2023-01-27T04:30:20;102029.22;;;1.48;85.37
55550;BME280;41397;49.972;18.944;2023-01-27T04:33:22;102030.00;;;1.53;85.28
55550;BME280;41397;49.972;18.944;2023-01-27T04:36:27;102036.01;;;1.65;85.34
55550;BME280;41397;49.972;18.944;2023-01-27T04:39:29;102034.98;;;1.70;84.72
55550;BME280;41397;49.972;18.944;2023-01-27T04:42:30;102038.81;;;1.60;85.25
55550;BME280;41397;49.972;18.944;2023-01-27T04:45:32;102037.41;;;1.44;85.48
55550;BME280;41397;49.972;18.944;2023-01-27T04:48:36;102037.05;;;1.59;85.51
55550;BME280;41397;49.972;18.944;2023-01-27T04:51:37;102032.70;;;1.53;85.49
55550;BME280;41397;49.972;18.944;2023-01-27T04:54:38;102026.29;;;1.58;85.43
55550;BME280;41397;49.972;18.944;2023-01-27T04:57:40;102037.82;;;1.64;85.54
55550;BME280;41397;49.972;18.944;2023-01-27T05:00:44;102033.57;;;1.54;85.50
55550;BME280;41397;49.972;18.944;2023-01-27T05:03:45;102050.53;;;1.59;85.56
55550;BME280;41397;49.972;18.944;2023-01-27T05:06:47;102036.01;;;1.65;85.67
55550;BME280;41397;49.972;18.944;2023-01-27T05:09:48;102049.13;;;1.80;85.45
55550;BME280;41397;49.972;18.944;2023-01-27T05:12:52;102059.14;;;1.75;85.18
55550;BME280;41397;49.972;18.944;2023-01-27T05:19:07;102055.60;;;1.71;85.34
55550;BME280;41397;49.972;18.944;2023-01-27T05:22:09;102054.91;;;1.63;85.60
55550;BME280;41397;49.972;18.944;2023-01-27T05:25:11;102049.43;;;1.66;85.66
55550;BME280;41397;49.972;18.944;2023-01-27T05:28:12;102055.48;;;1.77;85.83
55550;BME280;41397;49.972;18.944;2023-01-27T05:31:16;102054.38;;;1.85;84.96
55550;BME280;41397;49.972;18.944;2023-01-27T05:34:21;102041.63;;;1.91;85.18
55550;BME280;41397;49.972;18.944;2023-01-27T05:37:23;102049.65;;;1.94;85.02
55550;BME280;41397;49.972;18.944;2023-01-27T05:40:29;102052.28;;;1.96;84.98
55550;BME280;41397;49.972;18.944;2023-01-27T05:43:34;102047.91;;;1.92;84.72
55550;BME280;41397;49.972;18.944;2023-01-27T05:46:38;102049.95;;;1.82;84.92
55550;BME280;41397;49.972;18.944;2023-01-27T05:49:39;102055.43;;;1.79;85.05
55550;BME280;41397;49.972;18.944;2023-01-27T05:52:41;102051.84;;;1.78;85.08
55550;BME280;41397;49.972;18.944;2023-01-27T05:55:42;102052.80;;;1.76;85.20
55550;BME280;41397;49.972;18.944;2023-01-27T05:58:44;102057.40;;;1.72;84.89
55550;BME280;41397;49.972;18.944;2023-01-27T06:01:46;102062.88;;;1.69;84.59
55550;BME280;41397;49.972;18.944;2023-01-27T06:04:47;102058.36;;;1.70;84.78
55550;BME280;41397;49.972;18.944;2023-01-27T06:07:48;102067.99;;;1.80;84.51
55550;BME280;41397;49.972;18.944;2023-01-27T06:10:51;102074.73;;;1.62;84.71
55550;BME280;41397;49.972;18.944;2023-01-27T06:13:53;102075.68;;;1.60;84.59
55550;BME280;41397;49.972;18.944;2023-01-27T06:16:54;102075.34;;;1.73;84.54
55550;BME280;41397;49.972;18.944;2023-01-27T06:19:56;102071.68;;;1.76;84.48
55550;BME280;41397;49.972;18.944;2023-01-27T06:22:57;102071.60;;;1.79;84.15
55550;BME280;41397;49.972;18.944;2023-01-27T06:26:05;102081.23;;;1.53;83.46
55550;BME280;41397;49.972;18.944;2023-01-27T06:29:08;102080.95;;;1.25;84.40
55550;BME280;41397;49.972;18.944;2023-01-27T06:32:09;102085.05;;;1.43;84.66
55550;BME280;41397;49.972;18.944;2023-01-27T06:35:11;102083.16;;;1.47;84.81
55550;BME280;41397;49.972;18.944;2023-01-27T06:38:12;102081.63;;;1.37;84.54
55550;BME280;41397;49.972;18.944;2023-01-27T06:41:15;102081.55;;;1.40;84.55
55550;BME280;41397;49.972;18.944;2023-01-27T06:44:16;102085.98;;;1.42;83.99
55550;BME280;41397;49.972;18.944;2023-01-27T06:47:18;102094.02;;;1.44;82.87
55550;BME280;41397;49.972;18.944;2023-01-27T06:50:19;102101.69;;;1.23;82.01
55550;BME280;41397;49.972;18.944;2023-01-27T06:53:21;102095.34;;;1.26;81.49
55550;BME280;41397;49.972;18.944;2023-01-27T06:56:23;102097.80;;;1.37;81.58
55550;BME280;41397;49.972;18.944;2023-01-27T06:59:24;102095.52;;;1.17;81.16
55550;BME280;41397;49.972;18.944;2023-01-27T07:02:26;102094.71;;;1.13;81.72
55550;BME280;41397;49.972;18.944;2023-01-27T07:05:27;102095.45;;;1.20;81.55
55550;BME280;41397;49.972;18.944;2023-01-27T07:08:29;102097.20;;;1.22;81.18
55550;BME280;41397;49.972;18.944;2023-01-27T07:11:31;102097.98;;;1.27;80.85
55550;BME280;41397;49.972;18.944;2023-01-27T07:14:32;102097.75;;;1.38;80.44
55550;BME280;41397;49.972;18.944;2023-01-27T07:17:35;102099.55;;;1.38;80.39
55550;BME280;41397;49.972;18.944;2023-01-27T07:20:37;102099.01;;;1.22;80.92
55550;BME280;41397;49.972;18.944;2023-01-27T07:23:38;102103.00;;;1.04;80.89
55550;BME280;41397;49.972;18.944;2023-01-27T07:26:40;102103.67;;;1.14;81.80
55550;BME280;41397;49.972;18.944;2023-01-27T07:29:43;102109.86;;;1.19;81.57
55550;BME280;41397;49.972;18.944;2023-01-27T07:32:44;102108.09;;;1.18;82.14
55550;BME280;41397;49.972;18.944;2023-01-27T07:35:48;102107.07;;;1.23;82.37
55550;BME280;41397;49.972;18.944;2023-01-27T07:38:50;102105.09;;;1.31;82.31
55550;BME280;41397;49.972;18.944;2023-01-27T07:41:52;102111.51;;;1.26;82.07
55550;BME280;41397;49.972;18.944;2023-01-27T07:44:53;102113.55;;;1.15;82.56
55550;BME280;41397;49.972;18.944;2023-01-27T07:48:02;102114.52;;;1.10;82.21
55550;BME280;41397;49.972;18.944;2023-01-27T07:51:04;102116.91;;;1.24;81.80
55550;BME280;41397;49.972;18.944;2023-01-27T07:54:05;102113.27;;;1.27;81.90
55550;BME280;41397;49.972;18.944;2023-01-27T07:57:07;102103.11;;;1.40;81.55
55550;BME280;41397;49.972;18.944;2023-01-27T08:00:09;102106.28;;;1.18;81.75
55550;BME280;41397;49.972;18.944;2023-01-27T08:03:22;102109.84;;;1.20;81.50
55550;BME280;41397;49.972;18.944;2023-01-27T08:06:24;102116.03;;;1.24;81.81
55550;BME280;41397;49.972;18.944;2023-01-27T08:09:26;102115.73;;;1.38;82.24
55550;BME280;41397;49.972;18.944;2023-01-27T08:12:27;102123.98;;;1.30;82.54
55550;BME280;41397;49.972;18.944;2023-01-27T08:15:29;102117.70;;;1.29;82.76
55550;BME280;41397;49.972;18.944;2023-01-27T08:18:32;102119.52;;;1.29;82.60
55550;BME280;41397;49.972;18.944;2023-01-27T08:21:36;102133.02;;;1.27;82.60
55550;BME280;41397;49.972;18.944;2023-01-27T08:24:38;102132.34;;;1.18;82.62
55550;BME280;41397;49.972;18.944;2023-01-27T08:27:39;102129.53;;;1.22;82.48
55550;BME280;41397;49.972;18.944;2023-01-27T08:30:40;102142.84;;;1.30;82.29
55550;BME280;41397;49.972;18.944;2023-01-27T08:33:44;102154.07;;;1.08;81.85
55550;BME280;41397;49.972;18.944;2023-01-27T08:36:46;102136.88;;;1.16;82.15
55550;BME280;41397;49.972;18.944;2023-01-27T08:39:47;102151.64;;;0.96;81.43
55550;BME280;41397;49.972;18.944;2023-01-27T08:42:49;102150.56;;;1.05;81.69
55550;BME280;41397;49.972;18.944;2023-01-27T08:45:51;102140.53;;;1.11;80.91
55550;BME280;41397;49.972;18.944;2023-01-27T08:48:53;102147.71;;;1.13;79.54
55550;BME280;41397;49.972;18.944;2023-01-27T08:51:54;102154.84;;;1.15;79.17
55550;BME280;41397;49.972;18.944;2023-01-27T08:54:56;102164.89;;;1.07;79.13
55550;BME280;41397;49.972;18.944;2023-01-27T08:57:58;102167.59;;;1.07;79.06
55550;BME280;41397;49.972;18.944;2023-01-27T09:01:01;102163.73;;;1.20;78.68
55550;BME280;41397;49.972;18.944;2023-01-27T09:04:03;102170.55;;;0.93;78.15
55550;BME280;41397;49.972;18.944;2023-01-27T09:07:04;102170.55;;;0.93;77.77
55550;BME280;41397;49.972;18.944;2023-01-27T09:10:09;102169.71;;;0.89;78.31
55550;BME280;41397;49.972;18.944;2023-01-27T09:13:10;102167.80;;;0.96;78.70
55550;BME280;41397;49.972;18.944;2023-01-27T09:16:12;102167.09;;;0.86;78.22
55550;BME280;41397;49.972;18.944;2023-01-27T09:19:14;102171.23;;;1.04;78.12
55550;BME280;41397;49.972;18.944;2023-01-27T09:22:16;102166.74;;;1.03;77.72
55550;BME280;41397;49.972;18.944;2023-01-27T09:25:18;102175.48;;;1.16;77.57
55550;BME280;41397;49.972;18.944;2023-01-27T09:28:19;102172.42;;;1.33;77.62
55550;BME280;41397;49.972;18.944;2023-01-27T09:31:21;102178.10;;;1.19;76.99
55550;BME280;41397;49.972;18.944;2023-01-27T09:34:24;102182.59;;;1.20;77.08
55550;BME280;41397;49.972;18.944;2023-01-27T09:37:26;102184.43;;;1.17;76.98
55550;BME280;41397;49.972;18.944;2023-01-27T09:40:37;102174.45;;;1.22;76.70
55550;BME280;41397;49.972;18.944;2023-01-27T09:47:02;102159.72;;;1.40;76.90
55550;BME280;41397;49.972;18.944;2023-01-27T09:56:45;102155.28;;;1.37;76.44
55550;BME280;41397;49.972;18.944;2023-01-27T10:03:23;102178.10;;;1.19;76.59
55550;BME280;41397;49.972;18.944;2023-01-27T10:06:34;102175.83;;;0.98;76.66
55550;BME280;41397;49.972;18.944;2023-01-27T10:16:19;102176.35;;;1.17;76.12
55550;BME280;41397;49.972;18.944;2023-01-27T10:19:34;102163.97;;;1.08;76.00
55550;BME280;41397;49.972;18.944;2023-01-27T10:22:48;102156.96;;;0.99;75.95
55550;BME280;41397;49.972;18.944;2023-01-27T10:48:36;102156.09;;;1.41;75.82
55550;BME280;41397;49.972;18.944;2023-01-27T10:51:51;102159.59;;;1.44;75.24
55550;BME280;41397;49.972;18.944;2023-01-27T10:58:11;102166.57;;;1.54;75.02
55550;BME280;41397;49.972;18.944;2023-01-27T11:01:18;102161.17;;;1.54;74.59
55550;BME280;41397;49.972;18.944;2023-01-27T11:04:33;102165.05;;;1.41;75.34
55550;BME280;41397;49.972;18.944;2023-01-27T11:10:55;102158.77;;;1.42;74.96
55550;BME280;41397;49.972;18.944;2023-01-27T11:17:37;102160.99;;;1.22;75.59
55550;BME280;41397;49.972;18.944;2023-01-27T11:20:49;102157.77;;;1.46;75.59
55550;BME280;41397;49.972;18.944;2023-01-27T11:23:54;102153.13;;;1.53;75.33
55550;BME280;41397;49.972;18.944;2023-01-27T11:30:18;102142.15;;;1.61;75.25
55550;BME280;41397;49.972;18.944;2023-01-27T11:33:28;102145.53;;;1.70;74.42
55550;BME280;41397;49.972;18.944;2023-01-27T11:36:34;102153.01;;;1.58;74.10
55550;BME280;41397;49.972;18.944;2023-01-27T11:39:35;102154.68;;;1.63;74.06
55550;BME280;41397;49.972;18.944;2023-01-27T11:42:37;102149.52;;;1.52;74.07
55550;BME280;41397;49.972;18.944;2023-01-27T11:45:38;102141.12;;;1.66;74.26
55550;BME280;41397;49.972;18.944;2023-01-27T11:48:47;102137.43;;;1.72;73.48
55550;BME280;41397;49.972;18.944;2023-01-27T11:51:50;102130.79;;;1.85;73.25
55550;BME280;41397;49.972;18.944;2023-01-27T11:55:04;102137.72;;;1.97;72.79
55550;BME280;41397;49.972;18.944;2023-01-27T12:01:23;102135.28;;;1.86;71.72
55550;BME280;41397;49.972;18.944;2023-01-27T12:07:53;102131.95;;;1.75;71.43
55550;BME280;41397;49.972;18.944;2023-01-27T12:10:50;102148.87;;;1.82;71.87
55550;BME280;41397;49.972;18.944;2023-01-27T12:14:02;102137.98;;;1.86;71.88
55550;BME280;41397;49.972;18.944;2023-01-27T12:17:05;102136.78;;;1.98;71.75
55550;BME280;41397;49.972;18.944;2023-01-27T12:23:28;102143.55;;;2.16;70.84
55550;BME280;41397;49.972;18.944;2023-01-27T12:26:37;102136.85;;;2.31;70.74
55550;BME280;41397;49.972;18.944;2023-01-27T12:29:45;102141.76;;;2.15;70.42
55550;BME280;41397;49.972;18.944;2023-01-27T12:32:50;102136.06;;;1.91;70.27
55550;BME280;41397;49.972;18.944;2023-01-27T12:35:56;102132.97;;;2.07;70.84
55550;BME280;41397;49.972;18.944;2023-01-27T12:39:00;102132.84;;;2.13;70.22
55550;BME280;41397;49.972;18.944;2023-01-27T12:42:02;102127.38;;;2.14;69.87
55550;BME280;41397;49.972;18.944;2023-01-27T12:48:19;102135.23;;;2.23;69.62
55550;BME280;41397;49.972;18.944;2023-01-27T12:51:23;102129.45;;;2.39;69.76
55550;BME280;41397;49.972;18.944;2023-01-27T12:54:29;102130.35;;;2.04;69.73
55550;BME280;41397;49.972;18.944;2023-01-27T12:57:32;102131.09;;;2.10;69.95
55550;BME280;41397;49.972;18.944;2023-01-27T13:00:34;102132.51;;;2.25;70.37
55550;BME280;41397;49.972;18.944;2023-01-27T13:03:38;102134.14;;;2.32;69.89
55550;BME280;41397;49.972;18.944;2023-01-27T13:06:44;102122.59;;;2.26;70.00
55550;BME280;41397;49.972;18.944;2023-01-27T13:09:59;102128.55;;;2.38;69.82
55550;BME280;41397;49.972;18.944;2023-01-27T13:13:01;102131.63;;;2.25;69.61
55550;BME280;41397;49.972;18.944;2023-01-27T13:19:18;102128.34;;;2.12;70.17
55550;BME280;41397;49.972;18.944;2023-01-27T13:22:20;102134.35;;;2.23;69.62
55550;BME280;41397;49.972;18.944;2023-01-27T13:29:27;102128.07;;;2.22;69.62
55550;BME280;41397;49.972;18.944;2023-01-27T13:41:38;102137.48;;;2.06;69.95
55550;BME280;41397;49.972;18.944;2023-01-27T13:44:54;102138.28;;;2.10;69.79
55550;BME280;41397;49.972;18.944;2023-01-27T13:51:21;102132.85;;;2.11;70.11
55550;BME280;41397;49.972;18.944;2023-01-27T13:54:23;102142.09;;;2.01;70.08
55550;BME280;41397;49.972;18.944;2023-01-27T13:57:36;102141.38;;;1.94;70.00
55550;BME280;41397;49.972;18.944;2023-01-27T14:17:10;102152.87;;;2.03;70.04
55550;BME280;41397;49.972;18.944;2023-01-27T14:23:17;102158.80;;;1.80;70.85
55550;BME280;41397;49.972;18.944;2023-01-27T14:29:51;102170.90;;;2.00;70.82
55550;BME280;41397;49.972;18.944;2023-01-27T14:36:20;102169.51;;;1.83;70.77
55550;BME280;41397;49.972;18.944;2023-01-27T14:49:33;102180.55;;;2.11;71.16
55550;BME280;41397;49.972;18.944;2023-01-27T14:52:28;102177.80;;;2.12;71.22
55550;BME280;41397;49.972;18.944;2023-01-27T15:02:15;102194.45;;;1.94;71.30
55550;BME280;41397;49.972;18.944;2023-01-27T15:08:38;102204.45;;;1.89;71.25
55550;BME280;41397;49.972;18.944;2023-01-27T15:11:54;102208.50;;;2.08;71.17
55550;BME280;41397;49.972;18.944;2023-01-27T15:18:21;102207.64;;;2.06;71.20
55550;BME280;41397;49.972;18.944;2023-01-27T15:27:47;102210.31;;;2.08;70.74
55550;BME280;41397;49.972;18.944;2023-01-27T15:34:14;102231.77;;;2.12;70.93
55550;BME280;41397;49.972;18.944;2023-01-27T15:37:22;102235.58;;;2.04;70.83
55550;BME280;41397;49.972;18.944;2023-01-27T15:40:24;102236.12;;;1.81;71.88
55550;BME280;41397;49.972;18.944;2023-01-27T15:43:29;102234.86;;;1.95;71.56
55550;BME280;41397;49.972;18.944;2023-01-27T15:46:33;102240.02;;;2.06;71.94
55550;BME280;41397;49.972;18.944;2023-01-27T15:49:43;102223.91;;;2.03;71.84
55550;BME280;41397;49.972;18.944;2023-01-27T15:52:48;102232.98;;;1.99;71.50
55550;BME280;41397;49.972;18.944;2023-01-27T15:55:52;102230.26;;;2.00;71.50
55550;BME280;41397;49.972;18.944;2023-01-27T15:58:57;102217.82;;;1.93;71.81
55550;BME280;41397;49.972;18.944;2023-01-27T16:02:15;102227.66;;;1.96;71.77
55550;BME280;41397;49.972;18.944;2023-01-27T16:05:25;102218.59;;;2.00;71.67
55550;BME280;41397;49.972;18.944;2023-01-27T16:08:31;102227.86;;;1.88;71.78
55550;BME280;41397;49.972;18.944;2023-01-27T16:11:39;102233.11;;;1.94;72.07
55550;BME280;41397;49.972;18.944;2023-01-27T16:14:42;102227.72;;;1.94;71.41
55550;BME280;41397;49.972;18.944;2023-01-27T16:18:17;102213.27;;;1.97;71.65
55550;BME280;41397;49.972;18.944;2023-01-27T16:21:04;102219.23;;;2.10;71.47
55550;BME280;41397;49.972;18.944;2023-01-27T16:30:40;102219.37;;;2.05;70.46
55550;BME280;41397;49.972;18.944;2023-01-27T16:33:45;102231.13;;;2.03;70.91
55550;BME280;41397;49.972;18.944;2023-01-27T16:43:21;102238.18;;;2.08;70.16
55550;BME280;41397;49.972;18.944;2023-01-27T16:46:45;102246.52;;;1.97;69.98
55550;BME280;41397;49.972;18.944;2023-01-27T16:49:44;102249.38;;;1.91;69.75
55550;BME280;41397;49.972;18.944;2023-01-27T16:52:46;102247.48;;;1.95;70.40
55550;BME280;41397;49.972;18.944;2023-01-27T16:55:54;102234.92;;;1.94;70.09
55550;BME280;41397;49.972;18.944;2023-01-27T16:59:06;102244.48;;;2.07;70.19
55550;BME280;41397;49.972;18.944;2023-01-27T17:02:17;102251.68;;;2.08;70.52
55550;BME280;41397;49.972;18.944;2023-01-27T17:05:20;102257.00;;;2.11;70.32
55550;BME280;41397;49.972;18.944;2023-01-27T17:08:25;102251.63;;;2.10;70.37
55550;BME280;41397;49.972;18.944;2023-01-27T17:11:31;102253.52;;;2.06;69.72
55550;BME280;41397;49.972;18.944;2023-01-27T17:14:36;102252.16;;;1.87;69.56
55550;BME280;41397;49.972;18.944;2023-01-27T17:17:42;102252.32;;;1.79;69.82
55550;BME280;41397;49.972;18.944;2023-01-27T17:20:46;102247.70;;;1.86;69.72
55550;BME280;41397;49.972;18.944;2023-01-27T17:23:48;102253.85;;;1.91;69.26
55550;BME280;41397;49.972;18.944;2023-01-27T17:27:00;102265.88;;;1.76;68.69
55550;BME280;41397;49.972;18.944;2023-01-27T17:30:10;102267.94;;;1.63;68.02
55550;BME280;41397;49.972;18.944;2023-01-27T17:33:20;102270.57;;;1.66;67.52
55550;BME280;41397;49.972;18.944;2023-01-27T17:36:22;102265.53;;;1.49;67.35
55550;BME280;41397;49.972;18.944;2023-01-27T17:39:25;102273.23;;;1.69;67.34
55550;BME280;41397;49.972;18.944;2023-01-27T17:42:32;102263.16;;;1.77;66.96
55550;BME280;41397;49.972;18.944;2023-01-27T17:45:34;102282.07;;;1.74;66.15
55550;BME280;41397;49.972;18.944;2023-01-27T17:48:39;102276.51;;;1.84;67.05
55550;BME280;41397;49.972;18.944;2023-01-27T17:51:46;102279.04;;;1.91;67.74
55550;BME280;41397;49.972;18.944;2023-01-27T17:54:51;102271.92;;;1.87;68.52
55550;BME280;41397;49.972;18.944;2023-01-27T18:01:07;102279.14;;;1.87;68.28
55550;BME280;41397;49.972;18.944;2023-01-27T18:04:09;102280.17;;;1.80;68.47
55550;BME280;41397;49.972;18.944;2023-01-27T18:07:11;102279.95;;;1.90;67.93
55550;BME280;41397;49.972;18.944;2023-01-27T18:13:34;102287.21;;;1.88;67.07
55550;BME280;41397;49.972;18.944;2023-01-27T18:16:36;102284.16;;;1.62;66.60
55550;BME280;41397;49.972;18.944;2023-01-27T18:19:48;102289.49;;;1.65;66.69
55550;BME280;41397;49.972;18.944;2023-01-27T18:22:49;102286.66;;;1.71;66.40
55550;BME280;41397;49.972;18.944;2023-01-27T18:32:22;102306.69;;;1.59;65.45
55550;BME280;41397;49.972;18.944;2023-01-27T18:35:30;102319.77;;;1.32;66.33
55550;BME280;41397;49.972;18.944;2023-01-27T18:38:32;102317.61;;;1.53;66.26
55550;BME280;41397;49.972;18.944;2023-01-27T18:41:44;102318.50;;;1.52;66.11
55550;BME280;41397;49.972;18.944;2023-01-27T18:44:50;102325.63;;;1.56;66.18
55550;BME280;41397;49.972;18.944;2023-01-27T18:47:53;102315.73;;;1.57;66.85
55550;BME280;41397;49.972;18.944;2023-01-27T18:50:55;102310.42;;;1.52;66.21
55550;BME280;41397;49.972;18.944;2023-01-27T18:53:56;102312.16;;;1.54;66.15
55550;BME280;41397;49.972;18.944;2023-01-27T18:56:57;102315.95;;;1.44;66.20
55550;BME280;41397;49.972;18.944;2023-01-27T18:59:59;102317.40;;;1.62;66.26
55550;BME280;41397;49.972;18.944;2023-01-27T19:03:00;102313.76;;;1.65;66.80